sensor_id;sensor_type;location;lat;lon;timestamp;temperature;humidity
76577;DHT22;65441;44.748;37.600;2024-02-21T00:01:27;5.53;70.61
76577;DHT22;65441;44.748;37.600;2024-02-21T00:03:56;5.46;69.61
76577;DHT22;65441;44.748;37.600;2024-02-21T00:06:24;5.23;63.65
76577;DHT22;65441;44.748;37.600;2024-02-21T00:08:53;4.56;64.11
76577;DHT22;65441;44.748;37.600;2024-02-21T00:11:21;4.41;68.71
76577;DHT22;65441;44.748;37.600;2024-02-21T00:13:50;4.16;67.21
76577;DHT22;65441;44.748;37.600;2024-02-21T00:16:18;4.09;69.72
76577;DHT22;65441;44.748;37.600;2024-02-21T00:18:46;4.42;66.33
76577;DHT22;65441;44.748;37.600;2024-02-21T00:21:15;4.83;73.43
76577;DHT22;65441;44.748;37.600;2024-02-21T00:23:45;4.81;69.90
76577;DHT22;65441;44.748;37.600;2024-02-21T00:26:14;4.74;71.64
76577;DHT22;65441;44.748;37.600;2024-02-21T00:28:42;4.91;67.81
76577;DHT22;65441;44.748;37.600;2024-02-21T00:31:11;5.00;71.86
76577;DHT22;65441;44.748;37.600;2024-02-21T00:33:39;5.40;71.37
76577;DHT22;65441;44.748;37.600;2024-02-21T00:36:08;5.19;69.43
76577;DHT22;65441;44.748;37.600;2024-02-21T00:38:37;5.16;66.49
76577;DHT22;65441;44.748;37.600;2024-02-21T00:41:05;4.80;67.29
76577;DHT22;65441;44.748;37.600;2024-02-21T00:43:33;5.27;70.27
76577;DHT22;65441;44.748;37.600;2024-02-21T00:46:02;5.92;67.33
76577;DHT22;65441;44.748;37.600;2024-02-21T00:48:30;6.46;69.63
76577;DHT22;65441;44.748;37.600;2024-02-21T00:50:59;6.56;67.37
76577;DHT22;65441;44.748;37.600;2024-02-21T00:53:27;6.13;68.07
76577;DHT22;65441;44.748;37.600;2024-02-21T00:55:56;5.68;61.26
76577;DHT22;65441;44.748;37.600;2024-02-21T00:58:24;5.78;66.72
76577;DHT22;65441;44.748;37.600;2024-02-21T01:00:52;5.71;59.62
76577;DHT22;65441;44.748;37.600;2024-02-21T01:03:21;4.48;61.67
76577;DHT22;65441;44.748;37.600;2024-02-21T01:05:49;4.65;73.73
76577;DHT22;65441;44.748;37.600;2024-02-21T01:08:17;4.29;70.55
76577;DHT22;65441;44.748;37.600;2024-02-21T01:10:45;5.30;69.71
76577;DHT22;65441;44.748;37.600;2024-02-21T01:13:15;5.55;68.71
76577;DHT22;65441;44.748;37.600;2024-02-21T01:15:43;4.81;65.40
76577;DHT22;65441;44.748;37.600;2024-02-21T01:18:11;4.05;64.98
76577;DHT22;65441;44.748;37.600;2024-02-21T01:20:39;4.06;64.73
76577;DHT22;65441;44.748;37.600;2024-02-21T01:23:07;4.26;68.74
76577;DHT22;65441;44.748;37.600;2024-02-21T01:25:35;4.57;71.95
76577;DHT22;65441;44.748;37.600;2024-02-21T01:28:04;3.47;64.70
76577;DHT22;65441;44.748;37.600;2024-02-21T01:30:34;3.71;70.49
76577;DHT22;65441;44.748;37.600;2024-02-21T01:33:03;3.90;74.17
76577;DHT22;65441;44.748;37.600;2024-02-21T01:35:31;4.46;71.53
76577;DHT22;65441;44.748;37.600;2024-02-21T01:37:59;3.92;65.24
76577;DHT22;65441;44.748;37.600;2024-02-21T01:40:27;3.40;70.16
76577;DHT22;65441;44.748;37.600;2024-02-21T01:42:56;3.86;71.36
76577;DHT22;65441;44.748;37.600;2024-02-21T01:45:25;4.00;65.73
76577;DHT22;65441;44.748;37.600;2024-02-21T01:47:55;3.80;65.56
76577;DHT22;65441;44.748;37.600;2024-02-21T01:50:23;3.75;65.32
76577;DHT22;65441;44.748;37.600;2024-02-21T01:52:52;3.15;67.17
76577;DHT22;65441;44.748;37.600;2024-02-21T01:55:20;4.14;68.17
76577;DHT22;65441;44.748;37.600;2024-02-21T01:57:48;4.24;63.18
76577;DHT22;65441;44.748;37.600;2024-02-21T02:00:17;4.17;69.20
76577;DHT22;65441;44.748;37.600;2024-02-21T02:02:47;4.00;65.98
76577;DHT22;65441;44.748;37.600;2024-02-21T02:05:16;3.47;73.77
76577;DHT22;65441;44.748;37.600;2024-02-21T02:07:47;4.23;74.73
76577;DHT22;65441;44.748;37.600;2024-02-21T02:10:15;4.53;61.97
76577;DHT22;65441;44.748;37.600;2024-02-21T02:12:43;4.67;66.33
76577;DHT22;65441;44.748;37.600;2024-02-21T02:15:12;4.35;62.75
76577;DHT22;65441;44.748;37.600;2024-02-21T02:17:40;4.23;67.51
76577;DHT22;65441;44.748;37.600;2024-02-21T02:20:09;3.40;65.40
76577;DHT22;65441;44.748;37.600;2024-02-21T02:22:39;4.68;68.38
76577;DHT22;65441;44.748;37.600;2024-02-21T02:25:10;4.48;69.13
76577;DHT22;65441;44.748;37.600;2024-02-21T02:27:42;4.88;68.20
76577;DHT22;65441;44.748;37.600;2024-02-21T02:30:12;4.95;68.95
76577;DHT22;65441;44.748;37.600;2024-02-21T02:32:44;4.77;63.50
76577;DHT22;65441;44.748;37.600;2024-02-21T02:35:12;4.26;70.46
76577;DHT22;65441;44.748;37.600;2024-02-21T02:37:46;4.86;72.87
76577;DHT22;65441;44.748;37.600;2024-02-21T02:40:16;5.51;64.73
76577;DHT22;65441;44.748;37.600;2024-02-21T02:42:45;5.54;64.03
76577;DHT22;65441;44.748;37.600;2024-02-21T02:45:14;4.90;67.63
76577;DHT22;65441;44.748;37.600;2024-02-21T02:47:42;4.77;70.86
76577;DHT22;65441;44.748;37.600;2024-02-21T02:50:10;5.43;65.27
76577;DHT22;65441;44.748;37.600;2024-02-21T02:52:38;4.54;63.37
76577;DHT22;65441;44.748;37.600;2024-02-21T02:55:07;4.64;63.40
76577;DHT22;65441;44.748;37.600;2024-02-21T02:57:37;3.93;67.62
76577;DHT22;65441;44.748;37.600;2024-02-21T03:00:06;4.74;73.88
76577;DHT22;65441;44.748;37.600;2024-02-21T03:02:35;5.59;70.21
76577;DHT22;65441;44.748;37.600;2024-02-21T03:05:12;6.73;66.27
76577;DHT22;65441;44.748;37.600;2024-02-21T03:07:41;6.44;62.88
76577;DHT22;65441;44.748;37.600;2024-02-21T03:10:10;6.87;63.00
76577;DHT22;65441;44.748;37.600;2024-02-21T03:12:40;6.55;67.49
76577;DHT22;65441;44.748;37.600;2024-02-21T03:15:09;6.04;62.20
76577;DHT22;65441;44.748;37.600;2024-02-21T03:17:37;6.63;65.51
76577;DHT22;65441;44.748;37.600;2024-02-21T03:20:06;6.69;62.58
76577;DHT22;65441;44.748;37.600;2024-02-21T03:22:36;5.99;69.39
76577;DHT22;65441;44.748;37.600;2024-02-21T03:25:06;6.64;67.16
76577;DHT22;65441;44.748;37.600;2024-02-21T03:27:34;6.45;66.04
76577;DHT22;65441;44.748;37.600;2024-02-21T03:30:05;6.89;63.63
76577;DHT22;65441;44.748;37.600;2024-02-21T03:32:34;6.68;60.61
76577;DHT22;65441;44.748;37.600;2024-02-21T03:35:02;6.66;65.08
76577;DHT22;65441;44.748;37.600;2024-02-21T03:37:30;5.68;66.76
76577;DHT22;65441;44.748;37.600;2024-02-21T03:39:58;5.97;67.10
76577;DHT22;65441;44.748;37.600;2024-02-21T03:42:26;5.18;63.05
76577;DHT22;65441;44.748;37.600;2024-02-21T03:44:56;4.22;66.67
76577;DHT22;65441;44.748;37.600;2024-02-21T03:47:26;3.48;69.65
76577;DHT22;65441;44.748;37.600;2024-02-21T03:49:55;2.94;72.21
76577;DHT22;65441;44.748;37.600;2024-02-21T03:52:23;2.65;73.47
76577;DHT22;65441;44.748;37.600;2024-02-21T03:54:51;2.22;74.96
76577;DHT22;65441;44.748;37.600;2024-02-21T03:57:21;2.17;75.76
76577;DHT22;65441;44.748;37.600;2024-02-21T03:59:51;2.13;76.13
76577;DHT22;65441;44.748;37.600;2024-02-21T04:02:19;1.98;76.74
76577;DHT22;65441;44.748;37.600;2024-02-21T04:04:49;1.72;77.42
76577;DHT22;65441;44.748;37.600;2024-02-21T04:07:17;1.60;77.34
76577;DHT22;65441;44.748;37.600;2024-02-21T04:09:45;1.36;79.06
76577;DHT22;65441;44.748;37.600;2024-02-21T04:12:13;1.40;78.42
76577;DHT22;65441;44.748;37.600;2024-02-21T04:14:41;1.42;79.08
76577;DHT22;65441;44.748;37.600;2024-02-21T04:17:09;1.54;78.69
76577;DHT22;65441;44.748;37.600;2024-02-21T04:19:38;1.50;78.50
76577;DHT22;65441;44.748;37.600;2024-02-21T04:22:07;1.53;78.24
76577;DHT22;65441;44.748;37.600;2024-02-21T04:24:36;1.61;77.11
76577;DHT22;65441;44.748;37.600;2024-02-21T04:27:04;1.55;76.89
76577;DHT22;65441;44.748;37.600;2024-02-21T04:29:32;1.55;77.61
76577;DHT22;65441;44.748;37.600;2024-02-21T04:32:02;1.63;77.50
76577;DHT22;65441;44.748;37.600;2024-02-21T04:34:31;1.70;77.72
76577;DHT22;65441;44.748;37.600;2024-02-21T04:36:59;1.62;78.26
76577;DHT22;65441;44.748;37.600;2024-02-21T04:39:28;1.66;77.85
76577;DHT22;65441;44.748;37.600;2024-02-21T04:41:56;1.70;77.88
76577;DHT22;65441;44.748;37.600;2024-02-21T04:44:25;1.77;77.94
76577;DHT22;65441;44.748;37.600;2024-02-21T04:46:53;1.57;77.71
76577;DHT22;65441;44.748;37.600;2024-02-21T04:49:21;1.71;78.34
76577;DHT22;65441;44.748;37.600;2024-02-21T04:51:50;1.83;78.01
76577;DHT22;65441;44.748;37.600;2024-02-21T04:54:18;1.78;77.89
76577;DHT22;65441;44.748;37.600;2024-02-21T04:56:48;2.16;77.43
76577;DHT22;65441;44.748;37.600;2024-02-21T04:59:16;2.84;75.73
76577;DHT22;65441;44.748;37.600;2024-02-21T05:01:44;3.35;73.07
76577;DHT22;65441;44.748;37.600;2024-02-21T05:04:11;3.76;71.22
76577;DHT22;65441;44.748;37.600;2024-02-21T05:06:40;3.94;70.68
76577;DHT22;65441;44.748;37.600;2024-02-21T05:09:09;3.77;71.89
76577;DHT22;65441;44.748;37.600;2024-02-21T05:11:37;3.44;73.22
76577;DHT22;65441;44.748;37.600;2024-02-21T05:14:07;3.27;74.57
76577;DHT22;65441;44.748;37.600;2024-02-21T05:16:35;3.20;74.89
76577;DHT22;65441;44.748;37.600;2024-02-21T05:19:03;3.17;75.50
76577;DHT22;65441;44.748;37.600;2024-02-21T05:21:31;3.21;76.49
76577;DHT22;65441;44.748;37.600;2024-02-21T05:23:59;3.14;75.72
76577;DHT22;65441;44.748;37.600;2024-02-21T05:26:28;3.13;76.43
76577;DHT22;65441;44.748;37.600;2024-02-21T05:28:56;3.17;76.46
76577;DHT22;65441;44.748;37.600;2024-02-21T05:31:42;3.21;76.71
76577;DHT22;65441;44.748;37.600;2024-02-21T05:34:22;3.32;75.60
76577;DHT22;65441;44.748;37.600;2024-02-21T05:36:50;3.38;75.79
76577;DHT22;65441;44.748;37.600;2024-02-21T05:39:18;3.36;75.47
76577;DHT22;65441;44.748;37.600;2024-02-21T05:41:49;3.42;75.36
76577;DHT22;65441;44.748;37.600;2024-02-21T05:44:18;3.42;75.13
76577;DHT22;65441;44.748;37.600;2024-02-21T05:46:50;3.48;75.03
76577;DHT22;65441;44.748;37.600;2024-02-21T05:49:18;3.58;74.62
76577;DHT22;65441;44.748;37.600;2024-02-21T05:51:46;3.65;74.12
76577;DHT22;65441;44.748;37.600;2024-02-21T05:54:14;3.79;74.45
76577;DHT22;65441;44.748;37.600;2024-02-21T05:56:44;3.99;74.63
76577;DHT22;65441;44.748;37.600;2024-02-21T05:59:12;4.18;73.89
76577;DHT22;65441;44.748;37.600;2024-02-21T06:01:41;4.33;73.01
76577;DHT22;65441;44.748;37.600;2024-02-21T06:04:10;4.47;72.03
76577;DHT22;65441;44.748;37.600;2024-02-21T06:06:38;4.22;72.22
76577;DHT22;65441;44.748;37.600;2024-02-21T06:09:07;4.14;72.24
76577;DHT22;65441;44.748;37.600;2024-02-21T06:11:35;4.30;71.83
76577;DHT22;65441;44.748;37.600;2024-02-21T06:14:04;5.06;69.99
76577;DHT22;65441;44.748;37.600;2024-02-21T06:16:32;5.12;68.56
76577;DHT22;65441;44.748;37.600;2024-02-21T06:19:00;6.08;65.17
76577;DHT22;65441;44.748;37.600;2024-02-21T06:21:31;6.07;64.95
76577;DHT22;65441;44.748;37.600;2024-02-21T06:23:59;6.54;64.12
76577;DHT22;65441;44.748;37.600;2024-02-21T06:26:27;6.76;65.53
76577;DHT22;65441;44.748;37.600;2024-02-21T06:28:55;6.63;64.43
76577;DHT22;65441;44.748;37.600;2024-02-21T06:31:23;6.45;65.56
76577;DHT22;65441;44.748;37.600;2024-02-21T06:33:51;6.37;62.35
76577;DHT22;65441;44.748;37.600;2024-02-21T06:36:19;6.71;64.58
76577;DHT22;65441;44.748;37.600;2024-02-21T06:38:49;6.63;65.37
76577;DHT22;65441;44.748;37.600;2024-02-21T06:41:17;6.49;65.77
76577;DHT22;65441;44.748;37.600;2024-02-21T06:43:49;6.48;65.13
76577;DHT22;65441;44.748;37.600;2024-02-21T06:46:25;6.38;66.94
76577;DHT22;65441;44.748;37.600;2024-02-21T06:48:53;6.12;68.06
76577;DHT22;65441;44.748;37.600;2024-02-21T06:51:22;6.11;67.20
76577;DHT22;65441;44.748;37.600;2024-02-21T06:53:53;6.09;66.25
76577;DHT22;65441;44.748;37.600;2024-02-21T06:56:22;6.20;67.15
76577;DHT22;65441;44.748;37.600;2024-02-21T06:58:53;6.33;66.73
76577;DHT22;65441;44.748;37.600;2024-02-21T07:01:21;6.27;65.48
76577;DHT22;65441;44.748;37.600;2024-02-21T07:03:49;6.44;67.10
76577;DHT22;65441;44.748;37.600;2024-02-21T07:06:17;6.59;65.67
76577;DHT22;65441;44.748;37.600;2024-02-21T07:08:45;6.84;65.84
76577;DHT22;65441;44.748;37.600;2024-02-21T07:11:15;7.00;64.82
76577;DHT22;65441;44.748;37.600;2024-02-21T07:13:43;7.08;64.17
76577;DHT22;65441;44.748;37.600;2024-02-21T07:16:12;7.33;63.97
76577;DHT22;65441;44.748;37.600;2024-02-21T07:18:40;7.35;61.00
76577;DHT22;65441;44.748;37.600;2024-02-21T07:21:08;7.43;62.21
76577;DHT22;65441;44.748;37.600;2024-02-21T07:23:36;7.81;59.88
76577;DHT22;65441;44.748;37.600;2024-02-21T07:26:04;8.12;60.57
76577;DHT22;65441;44.748;37.600;2024-02-21T07:28:34;9.16;56.66
76577;DHT22;65441;44.748;37.600;2024-02-21T07:31:03;9.90;53.75
76577;DHT22;65441;44.748;37.600;2024-02-21T07:33:31;10.36;53.47
76577;DHT22;65441;44.748;37.600;2024-02-21T07:35:59;10.77;49.15
76577;DHT22;65441;44.748;37.600;2024-02-21T07:38:27;10.67;47.44
76577;DHT22;65441;44.748;37.600;2024-02-21T07:40:56;10.67;50.08
76577;DHT22;65441;44.748;37.600;2024-02-21T07:43:24;10.77;50.48
76577;DHT22;65441;44.748;37.600;2024-02-21T07:45:54;11.09;49.41
76577;DHT22;65441;44.748;37.600;2024-02-21T07:48:23;11.46;50.02
76577;DHT22;65441;44.748;37.600;2024-02-21T07:50:53;11.45;47.54
76577;DHT22;65441;44.748;37.600;2024-02-21T07:53:21;11.97;48.02
76577;DHT22;65441;44.748;37.600;2024-02-21T07:55:49;12.36;47.02
76577;DHT22;65441;44.748;37.600;2024-02-21T07:58:17;12.43;46.28
76577;DHT22;65441;44.748;37.600;2024-02-21T08:00:45;12.62;46.08
76577;DHT22;65441;44.748;37.600;2024-02-21T08:03:15;12.34;44.10
76577;DHT22;65441;44.748;37.600;2024-02-21T08:05:44;12.23;47.49
76577;DHT22;65441;44.748;37.600;2024-02-21T08:08:12;12.38;45.39
76577;DHT22;65441;44.748;37.600;2024-02-21T08:10:44;12.36;44.90
76577;DHT22;65441;44.748;37.600;2024-02-21T08:13:12;12.32;46.66
76577;DHT22;65441;44.748;37.600;2024-02-21T08:15:41;12.49;44.72
76577;DHT22;65441;44.748;37.600;2024-02-21T08:18:09;12.15;44.57
76577;DHT22;65441;44.748;37.600;2024-02-21T08:20:39;12.67;45.76
76577;DHT22;65441;44.748;37.600;2024-02-21T08:23:07;13.16;43.05
76577;DHT22;65441;44.748;37.600;2024-02-21T08:25:35;13.21;44.96
76577;DHT22;65441;44.748;37.600;2024-02-21T08:28:04;13.37;44.20
76577;DHT22;65441;44.748;37.600;2024-02-21T08:30:33;13.60;43.92
76577;DHT22;65441;44.748;37.600;2024-02-21T08:33:01;13.43;43.01
76577;DHT22;65441;44.748;37.600;2024-02-21T08:35:30;13.10;41.66
76577;DHT22;65441;44.748;37.600;2024-02-21T08:37:59;13.63;42.84
76577;DHT22;65441;44.748;37.600;2024-02-21T08:40:27;14.10;42.84
76577;DHT22;65441;44.748;37.600;2024-02-21T08:42:55;13.22;39.09
76577;DHT22;65441;44.748;37.600;2024-02-21T08:45:24;13.60;39.64
76577;DHT22;65441;44.748;37.600;2024-02-21T08:47:52;13.63;44.74
76577;DHT22;65441;44.748;37.600;2024-02-21T08:50:20;14.15;41.84
76577;DHT22;65441;44.748;37.600;2024-02-21T08:52:48;13.90;39.52
76577;DHT22;65441;44.748;37.600;2024-02-21T08:55:18;13.88;38.17
76577;DHT22;65441;44.748;37.600;2024-02-21T08:57:46;14.03;41.45
76577;DHT22;65441;44.748;37.600;2024-02-21T09:00:15;14.17;35.69
76577;DHT22;65441;44.748;37.600;2024-02-21T09:02:44;13.24;38.29
76577;DHT22;65441;44.748;37.600;2024-02-21T09:05:12;13.41;38.52
76577;DHT22;65441;44.748;37.600;2024-02-21T09:07:40;13.39;44.60
76577;DHT22;65441;44.748;37.600;2024-02-21T09:10:09;14.08;42.43
76577;DHT22;65441;44.748;37.600;2024-02-21T09:12:38;14.50;41.90
76577;DHT22;65441;44.748;37.600;2024-02-21T09:15:07;15.02;37.40
76577;DHT22;65441;44.748;37.600;2024-02-21T09:17:36;14.92;37.20
76577;DHT22;65441;44.748;37.600;2024-02-21T09:20:05;14.18;38.09
76577;DHT22;65441;44.748;37.600;2024-02-21T09:22:34;14.18;39.58
76577;DHT22;65441;44.748;37.600;2024-02-21T09:25:02;15.04;39.66
76577;DHT22;65441;44.748;37.600;2024-02-21T09:27:32;14.85;36.69
76577;DHT22;65441;44.748;37.600;2024-02-21T09:30:02;15.38;40.61
76577;DHT22;65441;44.748;37.600;2024-02-21T09:32:31;15.54;36.54
76577;DHT22;65441;44.748;37.600;2024-02-21T09:34:59;15.71;37.02
76577;DHT22;65441;44.748;37.600;2024-02-21T09:37:28;15.77;39.44
76577;DHT22;65441;44.748;37.600;2024-02-21T09:39:56;15.34;36.05
76577;DHT22;65441;44.748;37.600;2024-02-21T09:42:31;15.55;35.96
76577;DHT22;65441;44.748;37.600;2024-02-21T09:45:08;15.27;36.05
76577;DHT22;65441;44.748;37.600;2024-02-21T09:47:46;15.53;37.07
76577;DHT22;65441;44.748;37.600;2024-02-21T09:50:19;15.74;38.09
76577;DHT22;65441;44.748;37.600;2024-02-21T09:52:48;15.62;35.25
76577;DHT22;65441;44.748;37.600;2024-02-21T09:55:18;15.18;32.51
76577;DHT22;65441;44.748;37.600;2024-02-21T09:57:46;14.59;34.21
76577;DHT22;65441;44.748;37.600;2024-02-21T10:00:16;13.71;38.36
76577;DHT22;65441;44.748;37.600;2024-02-21T10:02:48;14.30;40.72
76577;DHT22;65441;44.748;37.600;2024-02-21T10:05:18;14.45;39.62
76577;DHT22;65441;44.748;37.600;2024-02-21T10:07:47;14.34;35.13
76577;DHT22;65441;44.748;37.600;2024-02-21T10:10:16;14.26;39.47
76577;DHT22;65441;44.748;37.600;2024-02-21T10:12:49;14.35;38.05
76577;DHT22;65441;44.748;37.600;2024-02-21T10:15:22;14.50;37.19
76577;DHT22;65441;44.748;37.600;2024-02-21T10:17:58;14.64;39.18
76577;DHT22;65441;44.748;37.600;2024-02-21T10:20:26;14.92;37.88
76577;DHT22;65441;44.748;37.600;2024-02-21T10:23:00;15.10;38.62
76577;DHT22;65441;44.748;37.600;2024-02-21T10:25:29;14.80;37.49
76577;DHT22;65441;44.748;37.600;2024-02-21T10:27:58;15.01;39.94
76577;DHT22;65441;44.748;37.600;2024-02-21T10:30:28;14.84;37.98
76577;DHT22;65441;44.748;37.600;2024-02-21T10:32:56;15.09;38.27
76577;DHT22;65441;44.748;37.600;2024-02-21T10:35:28;14.70;38.57
76577;DHT22;65441;44.748;37.600;2024-02-21T10:37:57;14.69;37.52
76577;DHT22;65441;44.748;37.600;2024-02-21T10:40:26;14.58;38.80
76577;DHT22;65441;44.748;37.600;2024-02-21T10:42:57;14.30;38.78
76577;DHT22;65441;44.748;37.600;2024-02-21T10:45:30;14.06;39.38
76577;DHT22;65441;44.748;37.600;2024-02-21T10:48:08;13.75;39.81
76577;DHT22;65441;44.748;37.600;2024-02-21T10:50:52;13.79;38.99
76577;DHT22;65441;44.748;37.600;2024-02-21T10:53:32;14.04;39.85
76577;DHT22;65441;44.748;37.600;2024-02-21T10:56:14;14.00;39.41
76577;DHT22;65441;44.748;37.600;2024-02-21T10:58:44;14.13;38.78
76577;DHT22;65441;44.748;37.600;2024-02-21T11:01:14;14.20;39.91
76577;DHT22;65441;44.748;37.600;2024-02-21T11:03:45;14.18;37.96
76577;DHT22;65441;44.748;37.600;2024-02-21T11:06:15;14.06;37.98
76577;DHT22;65441;44.748;37.600;2024-02-21T11:08:44;14.30;38.04
76577;DHT22;65441;44.748;37.600;2024-02-21T11:11:13;14.21;40.09
76577;DHT22;65441;44.748;37.600;2024-02-21T11:13:46;14.42;38.05
76577;DHT22;65441;44.748;37.600;2024-02-21T11:16:23;14.03;36.77
76577;DHT22;65441;44.748;37.600;2024-02-21T11:18:51;13.99;40.29
76577;DHT22;65441;44.748;37.600;2024-02-21T11:21:19;14.03;39.74
76577;DHT22;65441;44.748;37.600;2024-02-21T11:23:55;13.71;39.96
76577;DHT22;65441;44.748;37.600;2024-02-21T11:26:28;14.05;40.07
76577;DHT22;65441;44.748;37.600;2024-02-21T11:28:57;14.22;39.33
76577;DHT22;65441;44.748;37.600;2024-02-21T11:31:27;14.27;39.56
76577;DHT22;65441;44.748;37.600;2024-02-21T11:34:08;14.35;40.03
76577;DHT22;65441;44.748;37.600;2024-02-21T11:36:45;14.20;39.43
76577;DHT22;65441;44.748;37.600;2024-02-21T11:39:21;14.20;37.98
76577;DHT22;65441;44.748;37.600;2024-02-21T11:42:01;14.25;38.79
76577;DHT22;65441;44.748;37.600;2024-02-21T11:44:30;13.70;38.24
76577;DHT22;65441;44.748;37.600;2024-02-21T11:47:00;13.70;40.10
76577;DHT22;65441;44.748;37.600;2024-02-21T11:49:29;13.76;40.13
76577;DHT22;65441;44.748;37.600;2024-02-21T11:51:58;13.73;41.06
76577;DHT22;65441;44.748;37.600;2024-02-21T11:54:27;13.63;39.87
76577;DHT22;65441;44.748;37.600;2024-02-21T11:56:56;13.62;40.28
76577;DHT22;65441;44.748;37.600;2024-02-21T11:59:24;13.50;40.42
76577;DHT22;65441;44.748;37.600;2024-02-21T12:01:53;13.27;40.91
76577;DHT22;65441;44.748;37.600;2024-02-21T12:04:22;12.87;40.97
76577;DHT22;65441;44.748;37.600;2024-02-21T12:06:52;12.87;40.82
76577;DHT22;65441;44.748;37.600;2024-02-21T12:09:23;12.89;40.15
76577;DHT22;65441;44.748;37.600;2024-02-21T12:11:58;12.60;41.14
76577;DHT22;65441;44.748;37.600;2024-02-21T12:14:29;12.76;41.27
76577;DHT22;65441;44.748;37.600;2024-02-21T12:16:58;12.62;41.09
76577;DHT22;65441;44.748;37.600;2024-02-21T12:19:32;12.61;42.68
76577;DHT22;65441;44.748;37.600;2024-02-21T12:22:01;12.67;41.69
76577;DHT22;65441;44.748;37.600;2024-02-21T12:24:28;12.59;41.94
76577;DHT22;65441;44.748;37.600;2024-02-21T12:26:57;12.48;41.25
76577;DHT22;65441;44.748;37.600;2024-02-21T12:29:26;12.64;42.53
76577;DHT22;65441;44.748;37.600;2024-02-21T12:31:55;12.62;42.36
76577;DHT22;65441;44.748;37.600;2024-02-21T12:34:23;12.23;40.52
76577;DHT22;65441;44.748;37.600;2024-02-21T12:36:54;12.21;43.03
76577;DHT22;65441;44.748;37.600;2024-02-21T12:39:22;12.25;43.44
76577;DHT22;65441;44.748;37.600;2024-02-21T12:41:51;12.21;43.67
76577;DHT22;65441;44.748;37.600;2024-02-21T12:44:19;11.92;43.29
76577;DHT22;65441;44.748;37.600;2024-02-21T12:46:47;11.74;45.45
76577;DHT22;65441;44.748;37.600;2024-02-21T12:49:18;11.76;45.96
76577;DHT22;65441;44.748;37.600;2024-02-21T12:51:47;11.69;43.55
76577;DHT22;65441;44.748;37.600;2024-02-21T12:54:16;11.74;45.32
76577;DHT22;65441;44.748;37.600;2024-02-21T12:56:44;11.62;45.17
76577;DHT22;65441;44.748;37.600;2024-02-21T12:59:13;11.67;44.55
76577;DHT22;65441;44.748;37.600;2024-02-21T13:01:41;11.60;44.80
76577;DHT22;65441;44.748;37.600;2024-02-21T13:04:09;11.70;43.87
76577;DHT22;65441;44.748;37.600;2024-02-21T13:06:38;11.77;44.79
76577;DHT22;65441;44.748;37.600;2024-02-21T13:09:06;12.04;44.82
76577;DHT22;65441;44.748;37.600;2024-02-21T13:11:39;11.98;43.43
76577;DHT22;65441;44.748;37.600;2024-02-21T13:14:07;12.00;44.87
76577;DHT22;65441;44.748;37.600;2024-02-21T13:16:35;12.10;43.91
76577;DHT22;65441;44.748;37.600;2024-02-21T13:19:06;12.05;43.72
76577;DHT22;65441;44.748;37.600;2024-02-21T13:21:34;11.98;44.57
76577;DHT22;65441;44.748;37.600;2024-02-21T13:24:03;11.97;44.54
76577;DHT22;65441;44.748;37.600;2024-02-21T13:26:31;11.85;43.19
76577;DHT22;65441;44.748;37.600;2024-02-21T13:29:01;11.63;45.37
76577;DHT22;65441;44.748;37.600;2024-02-21T13:31:29;11.43;45.81
76577;DHT22;65441;44.748;37.600;2024-02-21T13:33:57;11.32;45.63
76577;DHT22;65441;44.748;37.600;2024-02-21T13:36:25;11.24;45.64
76577;DHT22;65441;44.748;37.600;2024-02-21T13:38:53;11.31;46.55
76577;DHT22;65441;44.748;37.600;2024-02-21T13:41:21;11.29;46.26
76577;DHT22;65441;44.748;37.600;2024-02-21T13:43:50;11.19;44.33
76577;DHT22;65441;44.748;37.600;2024-02-21T13:46:20;11.10;44.99
76577;DHT22;65441;44.748;37.600;2024-02-21T13:48:48;11.00;46.88
76577;DHT22;65441;44.748;37.600;2024-02-21T13:51:17;10.92;46.85
76577;DHT22;65441;44.748;37.600;2024-02-21T13:53:46;10.92;47.87
76577;DHT22;65441;44.748;37.600;2024-02-21T13:56:14;10.87;47.53
76577;DHT22;65441;44.748;37.600;2024-02-21T13:58:43;10.77;47.50
76577;DHT22;65441;44.748;37.600;2024-02-21T14:01:12;10.60;48.82
76577;DHT22;65441;44.748;37.600;2024-02-21T14:03:41;10.67;48.95
76577;DHT22;65441;44.748;37.600;2024-02-21T14:06:09;10.71;48.45
76577;DHT22;65441;44.748;37.600;2024-02-21T14:08:38;10.53;49.78
76577;DHT22;65441;44.748;37.600;2024-02-21T14:11:07;10.46;49.25
76577;DHT22;65441;44.748;37.600;2024-02-21T14:13:35;10.29;49.74
76577;DHT22;65441;44.748;37.600;2024-02-21T14:16:09;10.16;49.73
76577;DHT22;65441;44.748;37.600;2024-02-21T14:18:41;10.25;50.40
76577;DHT22;65441;44.748;37.600;2024-02-21T14:21:09;10.09;50.40
76577;DHT22;65441;44.748;37.600;2024-02-21T14:23:38;9.99;50.76
76577;DHT22;65441;44.748;37.600;2024-02-21T14:26:06;9.93;51.11
76577;DHT22;65441;44.748;37.600;2024-02-21T14:28:35;9.83;51.87
76577;DHT22;65441;44.748;37.600;2024-02-21T14:31:03;9.84;51.75
76577;DHT22;65441;44.748;37.600;2024-02-21T14:33:34;9.60;52.22
76577;DHT22;65441;44.748;37.600;2024-02-21T14:36:04;9.54;54.07
76577;DHT22;65441;44.748;37.600;2024-02-21T14:38:34;9.59;53.09
76577;DHT22;65441;44.748;37.600;2024-02-21T14:41:02;9.54;53.73
76577;DHT22;65441;44.748;37.600;2024-02-21T14:43:30;9.48;53.14
76577;DHT22;65441;44.748;37.600;2024-02-21T14:45:59;9.38;54.33
76577;DHT22;65441;44.748;37.600;2024-02-21T14:48:29;9.27;54.07
76577;DHT22;65441;44.748;37.600;2024-02-21T14:50:58;9.12;54.49
76577;DHT22;65441;44.748;37.600;2024-02-21T14:53:28;8.93;52.51
76577;DHT22;65441;44.748;37.600;2024-02-21T14:55:57;8.81;52.92
76577;DHT22;65441;44.748;37.600;2024-02-21T14:58:25;8.35;54.10
76577;DHT22;65441;44.748;37.600;2024-02-21T15:00:54;8.14;55.20
76577;DHT22;65441;44.748;37.600;2024-02-21T15:03:22;7.94;55.74
76577;DHT22;65441;44.748;37.600;2024-02-21T15:05:51;7.77;55.91
76577;DHT22;65441;44.748;37.600;2024-02-21T15:08:20;7.48;58.12
76577;DHT22;65441;44.748;37.600;2024-02-21T15:10:50;7.27;58.26
76577;DHT22;65441;44.748;37.600;2024-02-21T15:13:18;6.89;59.21
76577;DHT22;65441;44.748;37.600;2024-02-21T15:15:47;6.83;59.54
76577;DHT22;65441;44.748;37.600;2024-02-21T15:18:15;6.64;60.14
76577;DHT22;65441;44.748;37.600;2024-02-21T15:20:44;6.60;60.02
76577;DHT22;65441;44.748;37.600;2024-02-21T15:23:12;6.51;60.46
76577;DHT22;65441;44.748;37.600;2024-02-21T15:25:40;6.65;60.49
76577;DHT22;65441;44.748;37.600;2024-02-21T15:28:11;6.73;60.28
76577;DHT22;65441;44.748;37.600;2024-02-21T15:30:39;6.56;60.89
76577;DHT22;65441;44.748;37.600;2024-02-21T15:33:08;6.51;61.30
76577;DHT22;65441;44.748;37.600;2024-02-21T15:35:36;6.57;61.06
76577;DHT22;65441;44.748;37.600;2024-02-21T15:38:04;6.57;60.83